Portada
METAR-TAF:

METAR-TAF

Aeroports :

Corumbá, Mato Grosso do Sul, Brasil

latitud: 19-05S, longitud: 057-30W, altitud: 130 m

Observació

L'informe es va fer fa 56 minuts, a les 21:00 UTC
Vent 8 kt del Est/Nord-Est
Temperatura 32°C
Humitat 41%
Pressió 1012 hPa
Visibilitat: 9000 m

METAR: SBCR 242100Z 06008KT 9000 NSC 32/17 Q1012

Hora: 17:56 (21:56 UTC)

Pronòstic

L'informe es va fer fa 12 hores i 11 minuts, a les 09:45 UTC
Pronòstic vàlid del 24 a les 18 UTC al 25 a les 18 UTC
Vent 8 kt del Est/Nord-Est
Visibilitat: 8000 m
Evolucionant progressivament
l' 24 a les 20 UTC al 24 a les 22 UTC
Vent 7 kt del Est/Sud-Est

TAF: SBCR 240945Z 2418/2518 07008KT 8000 NSC TX32/2418Z TN22/2508Z BECMG 2420/2422 12007KT RMK PEB

Observacions i pronòstics meteorològics de més de 4000 aeroports (METAR i TAF).

Les estacions disponibles són els punts grocs i vermells al mapa.

Posi el ratolí al punt desitjat per veure el nom de l'estació.

Feu clic per veure les observacions i els pronòstics meteorològics.

Per canviar el mapa: feu clic els botons verds amb una creu de color negre per apropar; al botó verd amb un guió per allunyar la imatge; o en les fletxes verdes per a mapes adjacents.


METAR-TAF: